createdAt,value
2023-01-11T00:02:01.122Z,6.72
2023-01-11T00:04:28.010Z,8.68
2023-01-11T00:06:54.791Z,7.70
2023-01-11T00:09:21.497Z,7.43
2023-01-11T00:11:48.221Z,6.82
2023-01-11T00:14:15.142Z,5.18
2023-01-11T00:16:41.840Z,6.55
2023-01-11T00:19:09.878Z,5.72
2023-01-11T00:21:36.545Z,9.13
2023-01-11T00:24:03.287Z,7.00
2023-01-11T00:26:30.074Z,8.00
2023-01-11T00:28:56.761Z,9.27
2023-01-11T00:31:23.642Z,8.20
2023-01-11T00:33:50.334Z,5.80
2023-01-11T00:36:18.346Z,6.35
2023-01-11T00:38:44.998Z,7.18
2023-01-11T00:41:13.529Z,7.50
2023-01-11T00:43:40.199Z,6.95
2023-01-11T00:46:09.759Z,4.93
2023-01-11T00:48:36.422Z,9.55
2023-01-11T00:51:03.212Z,6.68
2023-01-11T00:53:31.326Z,7.35
2023-01-11T00:55:58.029Z,7.30
2023-01-11T00:58:24.699Z,6.40
2023-01-11T01:00:51.391Z,9.75
2023-01-11T01:03:18.292Z,6.93
2023-01-11T01:05:44.980Z,6.82
2023-01-11T01:08:11.661Z,7.30
2023-01-11T01:10:39.728Z,7.82
2023-01-11T01:13:06.372Z,5.93
2023-01-11T01:15:33.613Z,9.65
2023-01-11T01:18:00.325Z,7.72
2023-01-11T01:20:26.968Z,5.57
2023-01-11T01:22:53.769Z,5.30
2023-01-11T01:25:20.555Z,3.58
2023-01-11T01:27:48.612Z,6.95
2023-01-11T01:30:15.622Z,5.05
2023-01-11T01:32:42.312Z,5.07
2023-01-11T01:35:09.675Z,5.43
2023-01-11T01:37:36.455Z,8.30
2023-01-11T01:40:03.357Z,5.22
2023-01-11T01:42:30.141Z,4.63
2023-01-11T01:45:01.783Z,7.40
2023-01-11T01:47:37.549Z,8.45
2023-01-11T01:50:12.617Z,4.68
2023-01-11T01:52:39.950Z,4.07
2023-01-11T01:55:12.599Z,5.68
2023-01-11T01:57:43.815Z,7.57
2023-01-11T02:00:13.639Z,4.72
2023-01-11T02:02:43.709Z,4.30
2023-01-11T02:05:11.793Z,4.00
2023-01-11T02:07:41.101Z,8.60
2023-01-11T02:10:10.788Z,5.65
2023-01-11T02:12:40.525Z,6.05
2023-01-11T02:15:09.327Z,6.90
2023-01-11T02:17:37.369Z,4.95
2023-01-11T02:20:26.809Z,5.95
2023-01-11T02:23:34.335Z,6.30
2023-01-11T02:26:39.371Z,5.30
2023-01-11T02:29:13.768Z,5.20
2023-01-11T02:31:45.773Z,6.47
2023-01-11T02:34:26.633Z,3.78
2023-01-11T02:37:07.640Z,4.40
2023-01-11T02:39:43.347Z,7.57
2023-01-11T02:42:15.326Z,5.88
2023-01-11T02:44:52.811Z,7.50
2023-01-11T02:47:28.583Z,5.82
2023-01-11T02:49:59.798Z,6.18
2023-01-11T02:52:36.528Z,8.02
2023-01-11T02:55:04.785Z,6.28
2023-01-11T02:57:33.740Z,7.80
2023-01-11T03:00:03.498Z,5.07
2023-01-11T03:02:30.265Z,7.18
2023-01-11T03:04:57.008Z,5.90
2023-01-11T03:07:36.895Z,6.90
2023-01-11T03:10:17.473Z,7.43
2023-01-11T03:12:56.660Z,5.72
2023-01-11T03:15:41.963Z,5.25
2023-01-11T03:18:22.764Z,8.07
2023-01-11T03:20:54.595Z,5.65
2023-01-11T03:23:30.741Z,8.25
2023-01-11T03:26:01.586Z,7.18
2023-01-11T03:28:35.784Z,8.32
2023-01-11T03:31:11.072Z,7.20
2023-01-11T03:33:45.463Z,5.88
2023-01-11T03:36:17.981Z,7.75
2023-01-11T03:38:50.252Z,8.35
2023-01-11T03:41:22.398Z,6.25
2023-01-11T03:43:51.301Z,7.30
2023-01-11T03:46:23.390Z,7.88
2023-01-11T03:48:53.711Z,10.98
2023-01-11T03:51:26.417Z,8.95
2023-01-11T03:53:57.528Z,7.00
2023-01-11T03:56:30.456Z,8.90
2023-01-11T03:58:57.287Z,8.15
2023-01-11T04:01:26.396Z,10.25
2023-01-11T04:03:53.214Z,8.82
2023-01-11T04:06:20.020Z,10.50
2023-01-11T04:08:46.703Z,11.20
2023-01-11T04:11:13.951Z,10.02
2023-01-11T04:13:40.590Z,9.30
2023-01-11T04:16:07.482Z,11.30
2023-01-11T04:18:35.539Z,10.10
2023-01-11T04:21:02.270Z,11.60
2023-01-11T04:23:28.929Z,7.28
2023-01-11T04:25:55.628Z,8.70
2023-01-11T04:28:22.287Z,7.40
2023-01-11T04:30:49.043Z,10.13
2023-01-11T04:33:15.695Z,10.95
2023-01-11T04:35:43.787Z,9.93
2023-01-11T04:38:10.517Z,8.23
2023-01-11T04:40:37.266Z,9.70
2023-01-11T04:43:03.925Z,9.15
2023-01-11T04:45:31.056Z,10.00
2023-01-11T04:47:58.435Z,9.57
2023-01-11T04:50:26.205Z,7.20
2023-01-11T04:52:54.296Z,10.27
2023-01-11T04:55:21.165Z,6.53
2023-01-11T04:57:47.835Z,8.98
2023-01-11T05:00:15.218Z,10.50
2023-01-11T05:02:42.468Z,9.20
2023-01-11T05:05:10.708Z,8.32
2023-01-11T05:07:37.369Z,8.00
2023-01-11T05:10:06.611Z,10.13
2023-01-11T05:12:33.355Z,7.25
2023-01-11T05:15:00.037Z,10.05
2023-01-11T05:17:26.723Z,10.45
2023-01-11T05:19:53.405Z,6.65
2023-01-11T05:22:20.126Z,6.80
2023-01-11T05:24:46.800Z,8.98
2023-01-11T05:27:14.980Z,10.50
2023-01-11T05:29:41.640Z,9.00
2023-01-11T05:32:08.602Z,7.82
2023-01-11T05:34:35.473Z,9.07
2023-01-11T05:37:02.182Z,7.78
2023-01-11T05:39:28.937Z,8.98
2023-01-11T05:41:55.614Z,6.05
2023-01-11T05:44:23.686Z,7.82
2023-01-11T05:46:50.431Z,11.90
2023-01-11T05:49:17.152Z,7.00
2023-01-11T05:51:44.134Z,8.18
2023-01-11T05:54:12.394Z,6.53
2023-01-11T05:56:39.145Z,6.22
2023-01-11T05:59:05.862Z,7.05
2023-01-11T06:01:34.518Z,7.45
2023-01-11T06:04:01.380Z,6.40
2023-01-11T06:06:28.189Z,9.48
2023-01-11T06:08:54.855Z,9.07
2023-01-11T06:11:21.552Z,6.65
2023-01-11T06:13:48.273Z,8.23
2023-01-11T06:16:17.712Z,6.03
2023-01-11T06:18:47.415Z,9.80
2023-01-11T06:21:15.246Z,6.97
2023-01-11T06:23:43.581Z,7.82
2023-01-11T06:26:12.411Z,5.68
2023-01-11T06:28:39.645Z,6.72
2023-01-11T06:31:06.919Z,6.25
2023-01-11T06:33:34.187Z,6.50
2023-01-11T06:36:07.493Z,5.63
2023-01-11T06:38:34.349Z,7.20
2023-01-11T06:41:02.661Z,6.80
2023-01-11T06:43:30.955Z,6.18
2023-01-11T06:45:58.470Z,9.02
2023-01-11T06:48:26.636Z,6.65
2023-01-11T06:50:55.131Z,7.85
2023-01-11T06:53:25.819Z,5.32
2023-01-11T06:55:55.655Z,7.82
2023-01-11T06:58:23.294Z,7.05
2023-01-11T07:00:51.680Z,5.80
2023-01-11T07:03:18.646Z,5.50
2023-01-11T07:05:45.357Z,7.55
2023-01-11T07:08:12.174Z,6.82
2023-01-11T07:10:40.417Z,7.07
2023-01-11T07:13:07.089Z,6.50
2023-01-11T07:15:33.869Z,4.88
2023-01-11T07:18:01.709Z,6.38
2023-01-11T07:20:29.316Z,7.05
2023-01-11T07:22:59.638Z,6.70
2023-01-11T07:25:26.624Z,5.15
2023-01-11T07:27:58.425Z,4.93
2023-01-11T07:30:25.803Z,6.47
2023-01-11T07:32:52.578Z,6.72
2023-01-11T07:35:19.375Z,6.72
2023-01-11T07:37:46.097Z,7.85
2023-01-11T07:40:13.672Z,6.88
2023-01-11T07:42:40.330Z,8.80
2023-01-11T07:45:09.856Z,7.72
2023-01-11T07:47:36.535Z,10.07
2023-01-11T07:50:03.648Z,7.78
2023-01-11T07:52:30.322Z,9.15
2023-01-11T07:54:56.988Z,4.60
2023-01-11T07:57:23.701Z,20.55
2023-01-11T07:59:50.459Z,9.73
2023-01-11T08:02:18.528Z,7.35
2023-01-11T08:04:45.249Z,6.10
2023-01-11T08:07:11.925Z,6.65
2023-01-11T08:09:38.633Z,5.93
2023-01-11T08:12:05.770Z,6.45
2023-01-11T08:14:32.471Z,7.65
2023-01-11T08:16:59.141Z,6.15
2023-01-11T08:19:27.230Z,8.38
2023-01-11T08:21:53.953Z,5.82
2023-01-11T08:24:20.680Z,5.05
2023-01-11T08:26:47.755Z,6.28
2023-01-11T08:29:14.947Z,5.78
2023-01-11T08:31:43.994Z,5.93
2023-01-11T08:34:10.678Z,5.07
2023-01-11T08:36:38.807Z,4.90
2023-01-11T08:39:06.058Z,4.25
2023-01-11T08:41:32.918Z,6.15
2023-01-11T08:43:59.651Z,6.53
2023-01-11T08:46:26.416Z,7.28
2023-01-11T08:48:54.459Z,5.63
2023-01-11T08:51:21.429Z,9.63
2023-01-11T08:53:51.806Z,5.38
2023-01-11T08:56:19.002Z,11.70
2023-01-11T08:58:45.795Z,8.88
2023-01-11T09:01:12.586Z,6.97
2023-01-11T09:03:39.387Z,7.43
2023-01-11T09:06:06.788Z,6.80
2023-01-11T09:08:33.546Z,5.70
2023-01-11T09:11:01.808Z,6.03
2023-01-11T09:13:28.638Z,6.80
2023-01-11T09:15:56.355Z,6.35
2023-01-11T09:18:22.998Z,12.68
2023-01-11T09:20:51.200Z,7.75
2023-01-11T09:23:17.897Z,5.95
2023-01-11T09:25:44.600Z,7.63
2023-01-11T09:28:12.696Z,6.25
2023-01-11T09:30:39.500Z,7.80
2023-01-11T09:33:06.350Z,7.00
2023-01-11T09:35:33.242Z,6.65
2023-01-11T09:37:59.962Z,5.78
2023-01-11T09:40:48.421Z,8.50
2023-01-11T09:43:18.352Z,6.03
2023-01-11T09:45:45.203Z,6.20
2023-01-11T09:48:20.872Z,6.40
2023-01-11T09:50:48.194Z,6.45
2023-01-11T09:53:19.909Z,7.80
2023-01-11T09:55:49.273Z,5.28
2023-01-11T09:58:34.719Z,5.43
2023-01-11T10:01:09.996Z,4.18
2023-01-11T10:04:17.987Z,6.25
2023-01-11T10:06:51.586Z,4.80
2023-01-11T10:18:29.556Z,4.80
2023-01-11T10:18:52.891Z,6.13
2023-01-11T10:21:19.732Z,5.20
2023-01-11T10:23:51.339Z,5.90
2023-01-11T10:26:24.199Z,3.42
2023-01-11T10:28:56.371Z,4.47
2023-01-11T10:31:25.027Z,3.42
2023-01-11T10:33:55.845Z,4.88
2023-01-11T10:36:29.422Z,5.75
2023-01-11T10:39:02.094Z,5.45
2023-01-11T10:41:34.003Z,4.18
2023-01-11T10:44:13.000Z,4.97
2023-01-11T10:46:45.087Z,4.30
2023-01-11T10:49:40.216Z,4.70
2023-01-11T10:52:19.998Z,6.32
2023-01-11T10:54:47.376Z,3.70
2023-01-11T10:57:21.248Z,4.97
2023-01-11T11:00:12.477Z,4.82
2023-01-11T11:03:02.266Z,6.25
2023-01-11T11:05:37.812Z,5.97
2023-01-11T11:08:14.656Z,4.90
2023-01-11T11:10:48.617Z,5.97
2023-01-11T11:13:23.464Z,4.93
2023-01-11T11:15:56.054Z,6.60
2023-01-11T11:18:24.374Z,9.77
2023-01-11T11:20:51.111Z,5.57
2023-01-11T11:23:21.033Z,4.93
2023-01-11T11:25:51.275Z,5.25
2023-01-11T11:28:26.757Z,9.05
2023-01-11T11:30:55.216Z,5.07
2023-01-11T11:33:25.768Z,6.47
2023-01-11T11:35:56.615Z,5.72
2023-01-11T11:38:25.256Z,5.18
2023-01-11T11:41:04.249Z,7.25
2023-01-11T11:43:32.114Z,6.93
2023-01-11T11:46:00.941Z,5.38
2023-01-11T11:48:31.386Z,5.63
2023-01-11T11:51:00.750Z,6.20
2023-01-11T11:53:36.097Z,4.60
2023-01-11T11:56:14.284Z,4.97
2023-01-11T11:58:42.127Z,4.50
2023-01-11T12:01:24.551Z,7.45
2023-01-11T12:03:55.511Z,4.38
2023-01-11T12:06:25.077Z,4.25
2023-01-11T12:08:52.608Z,5.20
2023-01-11T12:11:22.915Z,6.10
2023-01-11T12:14:00.944Z,4.95
2023-01-11T12:16:34.051Z,5.55
2023-01-11T12:19:02.297Z,5.15
2023-01-11T12:21:29.550Z,5.28
2023-01-11T12:24:13.685Z,6.32
2023-01-11T12:26:50.176Z,5.32
2023-01-11T12:29:40.459Z,7.63
2023-01-11T12:32:32.887Z,4.93
2023-01-11T12:35:13.787Z,5.78
2023-01-11T12:37:57.503Z,7.13
2023-01-11T12:40:34.990Z,6.10
2023-01-11T12:43:18.910Z,9.07
2023-01-11T12:45:52.961Z,5.88
2023-01-11T12:48:45.676Z,9.70
2023-01-11T12:51:36.809Z,6.05
2023-01-11T12:54:22.592Z,8.55
2023-01-11T12:57:11.849Z,11.98
2023-01-11T12:59:58.774Z,9.80
2023-01-11T13:02:42.188Z,6.68
2023-01-11T13:05:25.110Z,9.48
2023-01-11T13:08:05.186Z,8.13
2023-01-11T13:10:39.089Z,6.70
2023-01-11T13:13:12.957Z,8.60
2023-01-11T13:15:48.350Z,8.90
2023-01-11T13:18:24.706Z,8.85
2023-01-11T13:21:04.012Z,10.77
2023-01-11T13:23:39.997Z,8.35
2023-01-11T13:26:17.479Z,10.32
2023-01-11T13:28:48.790Z,9.30
2023-01-11T13:31:16.349Z,10.02
2023-01-11T13:33:47.231Z,12.73
2023-01-11T13:36:23.203Z,12.07
2023-01-11T13:38:57.232Z,8.20
2023-01-11T13:41:27.618Z,6.78
2023-01-11T13:43:59.520Z,7.50
2023-01-11T13:46:41.507Z,7.32
2023-01-11T13:49:17.864Z,18.98
2023-01-11T13:51:54.016Z,23.20
2023-01-11T13:54:29.296Z,15.18
2023-01-11T13:57:00.687Z,13.50
2023-01-11T13:59:31.542Z,9.95
2023-01-11T14:02:02.746Z,9.65
2023-01-11T14:04:40.599Z,9.77
2023-01-11T14:07:23.007Z,10.55
2023-01-11T14:10:20.177Z,9.20
2023-01-11T14:13:12.312Z,10.18
2023-01-11T14:15:44.337Z,8.80
2023-01-11T14:18:25.123Z,9.13
2023-01-11T14:21:01.477Z,10.20
2023-01-11T14:23:38.173Z,10.05
2023-01-11T14:26:29.577Z,10.38
2023-01-11T14:29:06.899Z,11.18
2023-01-11T14:32:16.720Z,11.73
2023-01-11T14:35:09.272Z,9.98
2023-01-11T14:38:06.366Z,9.05
2023-01-11T14:40:58.034Z,6.25
2023-01-11T14:43:54.743Z,7.40
2023-01-11T14:46:44.956Z,6.13
2023-01-11T14:49:22.773Z,5.38
2023-01-11T14:51:56.542Z,6.07
2023-01-11T14:54:27.332Z,8.45
2023-01-11T14:56:55.514Z,8.77
2023-01-11T14:59:32.044Z,12.02
2023-01-11T15:02:27.690Z,10.60
2023-01-11T15:05:06.633Z,10.68
2023-01-11T15:07:35.784Z,15.60
2023-01-11T15:10:25.778Z,13.30
2023-01-11T15:12:56.190Z,13.60
2023-01-11T15:15:28.328Z,10.18
2023-01-11T15:17:57.102Z,8.70
2023-01-11T15:20:25.003Z,8.32
2023-01-11T15:22:56.988Z,9.35
2023-01-11T15:25:25.662Z,10.55
2023-01-11T15:27:53.941Z,14.02
2023-01-11T15:30:52.623Z,13.40
2023-01-11T15:33:28.582Z,10.63
2023-01-11T15:36:03.246Z,9.48
2023-01-11T15:38:33.811Z,8.48
2023-01-11T15:41:02.578Z,8.60
2023-01-11T15:43:51.041Z,9.35
2023-01-11T15:47:05.038Z,9.52
2023-01-11T15:49:58.112Z,8.30
2023-01-11T15:53:17.472Z,8.68
2023-01-11T15:56:19.464Z,9.98
2023-01-11T15:59:21.949Z,10.38
2023-01-11T16:02:13.829Z,10.48
2023-01-11T16:04:45.689Z,10.85
2023-01-11T16:07:21.100Z,10.93
2023-01-11T16:10:04.124Z,8.07
2023-01-11T16:12:46.250Z,8.48
2023-01-11T16:15:41.194Z,8.32
2023-01-11T16:18:13.604Z,9.05
2023-01-11T16:20:43.800Z,7.35
2023-01-11T16:23:18.430Z,6.15
2023-01-11T16:25:45.741Z,9.23
2023-01-11T16:28:16.131Z,5.40
2023-01-11T16:30:43.042Z,6.00
2023-01-11T16:33:19.321Z,5.47
2023-01-11T16:35:47.525Z,7.07
2023-01-11T16:38:17.443Z,7.70
2023-01-11T16:40:48.509Z,9.63
2023-01-11T16:43:20.955Z,7.10
2023-01-11T16:45:49.197Z,6.18
2023-01-11T16:48:16.946Z,6.00
2023-01-11T16:50:56.676Z,8.50
2023-01-11T16:53:24.709Z,6.45
2023-01-11T16:55:56.667Z,6.35
2023-01-11T16:58:27.032Z,7.00
2023-01-11T17:00:57.604Z,7.18
2023-01-11T17:03:25.325Z,6.15
2023-01-11T17:06:18.246Z,7.68
2023-01-11T17:08:46.912Z,7.10
2023-01-11T17:11:24.123Z,10.00
2023-01-11T17:14:40.315Z,7.78
2023-01-11T17:17:09.195Z,9.90
2023-01-11T17:19:38.073Z,8.02
2023-01-11T17:22:08.434Z,10.20
2023-01-11T17:24:40.043Z,9.70
2023-01-11T17:27:09.240Z,10.02
2023-01-11T17:29:38.839Z,8.27
2023-01-11T17:32:12.466Z,8.07
2023-01-11T17:34:39.646Z,10.65
2023-01-11T17:37:13.734Z,8.45
2023-01-11T17:39:43.408Z,8.25
2023-01-11T17:42:12.952Z,9.73
2023-01-11T17:44:40.645Z,12.27
2023-01-11T17:47:11.018Z,7.72
2023-01-11T17:49:38.667Z,9.85
2023-01-11T17:52:16.408Z,10.65
2023-01-11T17:54:43.155Z,10.27
2023-01-11T17:57:09.857Z,12.90
2023-01-11T17:59:36.577Z,10.30
2023-01-11T18:02:10.961Z,10.57
2023-01-11T18:04:37.835Z,8.40
2023-01-11T18:07:15.432Z,11.27
2023-01-11T18:09:45.582Z,15.00
2023-01-11T18:12:15.631Z,11.57
2023-01-11T18:14:48.598Z,9.32
2023-01-11T18:17:34.059Z,13.52
2023-01-11T18:20:02.596Z,11.50
2023-01-11T18:22:32.244Z,14.55
2023-01-11T18:25:00.379Z,14.60
2023-01-11T18:27:30.078Z,14.98
2023-01-11T18:29:58.834Z,14.27
2023-01-11T18:32:35.273Z,12.52
2023-01-11T18:35:02.111Z,14.30
2023-01-11T18:37:30.163Z,13.77
2023-01-11T18:39:58.177Z,20.25
2023-01-11T18:42:28.680Z,18.77
2023-01-11T18:44:55.443Z,15.85
2023-01-11T18:47:23.711Z,16.45
2023-01-11T18:49:51.563Z,15.32
2023-01-11T18:52:19.431Z,13.02
2023-01-11T18:54:47.957Z,14.93
2023-01-11T18:57:14.595Z,11.35
2023-01-11T18:59:41.355Z,16.13
2023-01-11T19:04:52.069Z,20.30
2023-01-11T19:07:18.841Z,17.33
2023-01-11T19:09:47.031Z,15.30
2023-01-11T19:12:14.530Z,14.88
2023-01-11T19:14:41.211Z,15.95
2023-01-11T19:17:08.714Z,15.05
2023-01-11T19:19:35.428Z,12.95
2023-01-11T19:22:02.193Z,11.23
2023-01-11T19:24:28.977Z,15.27
2023-01-11T19:26:57.094Z,14.55
2023-01-11T19:29:23.889Z,11.93
2023-01-11T19:31:52.110Z,11.25
2023-01-11T19:34:19.199Z,9.85
2023-01-11T19:36:45.969Z,9.77
2023-01-11T19:39:12.763Z,10.68
2023-01-11T19:41:39.623Z,10.00
2023-01-11T19:44:07.673Z,14.18
2023-01-11T19:46:34.372Z,13.65
2023-01-11T19:49:01.049Z,10.52
2023-01-11T19:51:27.770Z,9.95
2023-01-11T19:53:54.563Z,12.75
2023-01-11T19:56:21.269Z,12.52
2023-01-11T19:58:48.036Z,9.48
2023-01-11T20:01:16.585Z,12.65
2023-01-11T20:03:43.316Z,15.82
2023-01-11T20:06:10.007Z,12.10
2023-01-11T20:08:37.438Z,16.30
2023-01-11T20:11:06.330Z,24.13
2023-01-11T20:13:33.102Z,27.35
2023-01-11T20:16:04.461Z,24.55
2023-01-11T20:18:32.610Z,18.45
2023-01-11T20:20:59.367Z,15.77
2023-01-11T20:23:26.092Z,22.00
2023-01-11T20:25:58.112Z,15.57
2023-01-11T20:28:24.910Z,12.63
2023-01-11T20:30:51.923Z,14.63
2023-01-11T20:33:18.739Z,13.35
2023-01-11T20:35:46.872Z,12.13
2023-01-11T20:38:13.532Z,13.85
2023-01-11T20:40:40.333Z,10.20
2023-01-11T20:43:07.064Z,7.68
2023-01-11T20:45:33.788Z,12.02
2023-01-11T20:48:00.508Z,8.32
2023-01-11T20:50:27.267Z,10.80
2023-01-11T20:52:55.363Z,15.02
2023-01-11T20:55:22.068Z,13.05
2023-01-11T20:57:48.762Z,10.32
2023-01-11T21:00:16.299Z,12.10
2023-01-11T21:02:43.088Z,11.85
2023-01-11T21:05:10.145Z,10.20
2023-01-11T21:07:36.858Z,11.35
2023-01-11T21:10:05.837Z,9.00
2023-01-11T21:12:32.518Z,9.80
2023-01-11T21:14:59.252Z,11.90
2023-01-11T21:17:25.964Z,10.88
2023-01-11T21:19:52.623Z,11.68
2023-01-11T21:22:19.362Z,11.25
2023-01-11T21:24:46.112Z,9.25
2023-01-11T21:27:14.224Z,8.80
2023-01-11T21:29:40.934Z,9.60
2023-01-11T21:32:07.615Z,9.02
2023-01-11T21:34:34.299Z,10.45
2023-01-11T21:37:00.962Z,7.50
2023-01-11T21:39:27.674Z,10.85
2023-01-11T21:41:54.594Z,8.88
2023-01-11T21:44:27.149Z,7.40
2023-01-11T21:46:54.411Z,9.95
2023-01-11T21:49:21.185Z,6.45
2023-01-11T21:51:47.881Z,8.73
2023-01-11T21:54:15.742Z,7.45
2023-01-11T21:56:42.461Z,6.55
2023-01-11T21:59:09.492Z,7.70
2023-01-11T22:01:38.377Z,9.68
2023-01-11T22:04:05.936Z,7.57
2023-01-11T22:06:35.419Z,8.25
2023-01-11T22:09:02.308Z,6.72
2023-01-11T22:11:28.978Z,11.48
2023-01-11T22:13:55.656Z,10.95
2023-01-11T22:16:22.461Z,10.38
2023-01-11T22:18:50.555Z,10.68
2023-01-11T22:21:18.802Z,10.27
2023-01-11T22:23:46.710Z,13.98
2023-01-11T22:26:15.307Z,12.85
2023-01-11T22:28:42.669Z,8.98
2023-01-11T22:31:09.396Z,7.72
2023-01-11T22:33:36.730Z,12.65
2023-01-11T22:36:05.432Z,13.07
2023-01-11T22:38:32.590Z,8.85
2023-01-11T22:40:59.777Z,9.93
2023-01-11T22:43:26.443Z,6.70
2023-01-11T22:45:56.906Z,11.85
2023-01-11T22:48:23.851Z,7.25
2023-01-11T22:50:50.546Z,9.32
2023-01-11T22:53:18.594Z,9.52
2023-01-11T22:55:45.380Z,7.55
2023-01-11T22:58:12.035Z,7.75
2023-01-11T23:00:38.689Z,9.80
2023-01-11T23:03:05.548Z,8.68
2023-01-11T23:05:32.334Z,8.55
2023-01-11T23:07:59.027Z,7.35
2023-01-11T23:10:27.093Z,6.47
2023-01-11T23:12:53.811Z,6.03
2023-01-11T23:15:21.603Z,9.50
2023-01-11T23:17:48.330Z,7.53
2023-01-11T23:20:15.189Z,7.35
2023-01-11T23:22:41.863Z,10.48
2023-01-11T23:25:09.372Z,5.53
2023-01-11T23:27:37.467Z,9.63
2023-01-11T23:30:05.083Z,8.85
2023-01-11T23:32:31.790Z,8.10
2023-01-11T23:34:58.463Z,8.35
2023-01-11T23:37:25.137Z,8.25
2023-01-11T23:39:52.036Z,7.60
2023-01-11T23:42:18.738Z,5.45
2023-01-11T23:44:46.854Z,6.95
2023-01-11T23:47:13.551Z,6.65
2023-01-11T23:49:40.376Z,8.20
2023-01-11T23:52:07.205Z,11.38
2023-01-11T23:54:34.396Z,12.35
2023-01-11T23:57:02.458Z,7.35
2023-01-11T23:59:29.565Z,5.38
